KSUN/SUN METAR and TAF weather

Enter ICAO airport designator
Station Type Date Time Source
KSUN METAR 2020/01/25 21:55 UTC NOAA

KSUN 252155Z 10004KT 10SM SCT020 OVC047 02/M03 A3014


Station Type Date Time Source
KSUN Decoded METAR 2020/01/25 21:55 UTC NOAA

Hailey, Friedman Memorial Airport, ID, United States (KSUN) 43-30N 114-18W
Jan 25, 2020 - 04:55 PM EST / 2020.01.25 2155 UTC
Wind: from the E (100 degrees) at 5 MPH (4 KT):0
Visibility: 10 mile(s):0
Sky conditions: overcast
Temperature: 35 F (2 C)
Windchill: 30 F (-1 C):1
Dew Point: 26 F (-3 C)
Relative Humidity: 69%
Pressure (altimeter): 30.14 in. Hg (1020 hPa)
ob: KSUN 252155Z 10004KT 10SM SCT020 OVC047 02/M03 A3014
cycle: 22

Station Type Date Time Source
KSUN TAF 2020/01/25 18:27 UTC NOAA

TAF KSUN 251723Z 2518/2624 31007KT P6SM OVC040
FM251900 15007KT P6SM SCT050 BKN070 OVC100
FM260200 30008KT P6SM SCT030 BKN050 OVC070
FM261300 VRB05KT 5SM -SN BKN025
FM261800 14005KT 1SM -SN BR OVC010

Example: see airport list